sensor_id;sensor_type;location;lat;lon;timestamp;P1;durP1;ratioP1;P2;durP2;ratioP2
44664;SDS011;30382;48.802;9.388;2023-01-29T00:02:12;11.57;;;9.53;;
44664;SDS011;30382;48.802;9.388;2023-01-29T01:20:16;11.95;;;9.93;;
44664;SDS011;30382;48.802;9.388;2023-01-29T01:31:28;8.70;;;7.80;;
44664;SDS011;30382;48.802;9.388;2023-01-29T02:53:39;10.55;;;9.45;;
44664;SDS011;30382;48.802;9.388;2023-01-29T03:04:45;10.07;;;9.07;;
44664;SDS011;30382;48.802;9.388;2023-01-29T03:07:56;9.50;;;8.43;;
44664;SDS011;30382;48.802;9.388;2023-01-29T03:11:09;9.10;;;8.20;;
44664;SDS011;30382;48.802;9.388;2023-01-29T03:18:05;9.10;;;8.30;;
44664;SDS011;30382;48.802;9.388;2023-01-29T03:21:23;9.35;;;8.45;;
44664;SDS011;30382;48.802;9.388;2023-01-29T03:25:16;8.70;;;7.63;;
44664;SDS011;30382;48.802;9.388;2023-01-29T03:28:47;8.57;;;7.87;;
44664;SDS011;30382;48.802;9.388;2023-01-29T03:32:54;8.40;;;7.60;;
44664;SDS011;30382;48.802;9.388;2023-01-29T03:36:53;8.70;;;7.90;;
44664;SDS011;30382;48.802;9.388;2023-01-29T04:10:53;8.00;;;7.30;;
44664;SDS011;30382;48.802;9.388;2023-01-29T07:19:32;10.35;;;8.60;;
44664;SDS011;30382;48.802;9.388;2023-01-29T07:44:35;14.60;;;11.55;;
44664;SDS011;30382;48.802;9.388;2023-01-29T08:02:13;40.35;;;21.85;;
44664;SDS011;30382;48.802;9.388;2023-01-29T09:09:45;17.27;;;10.50;;
44664;SDS011;30382;48.802;9.388;2023-01-29T09:16:10;11.98;;;10.52;;
44664;SDS011;30382;48.802;9.388;2023-01-29T09:30:14;11.30;;;10.10;;
44664;SDS011;30382;48.802;9.388;2023-01-29T09:39:32;12.70;;;10.25;;
44664;SDS011;30382;48.802;9.388;2023-01-29T09:42:41;15.65;;;11.90;;
44664;SDS011;30382;48.802;9.388;2023-01-29T09:46:44;12.35;;;11.15;;
44664;SDS011;30382;48.802;9.388;2023-01-29T09:56:32;11.38;;;10.23;;
44664;SDS011;30382;48.802;9.388;2023-01-29T09:59:33;11.10;;;10.00;;
44664;SDS011;30382;48.802;9.388;2023-01-29T10:05:33;13.45;;;9.80;;
44664;SDS011;30382;48.802;9.388;2023-01-29T10:08:22;19.35;;;13.35;;
44664;SDS011;30382;48.802;9.388;2023-01-29T10:14:10;18.75;;;12.13;;
44664;SDS011;30382;48.802;9.388;2023-01-29T10:17:11;11.77;;;10.57;;
44664;SDS011;30382;48.802;9.388;2023-01-29T10:20:02;21.17;;;12.30;;
44664;SDS011;30382;48.802;9.388;2023-01-29T10:22:59;18.83;;;12.73;;
44664;SDS011;30382;48.802;9.388;2023-01-29T10:25:46;17.10;;;13.18;;
44664;SDS011;30382;48.802;9.388;2023-01-29T10:31:30;17.43;;;13.17;;
44664;SDS011;30382;48.802;9.388;2023-01-29T10:38:44;21.92;;;14.70;;
44664;SDS011;30382;48.802;9.388;2023-01-29T10:51:47;13.57;;;12.27;;
44664;SDS011;30382;48.802;9.388;2023-01-29T10:58:54;19.40;;;13.27;;
44664;SDS011;30382;48.802;9.388;2023-01-29T11:01:39;21.20;;;12.77;;
44664;SDS011;30382;48.802;9.388;2023-01-29T11:04:28;16.05;;;11.80;;
44664;SDS011;30382;48.802;9.388;2023-01-29T11:07:27;14.95;;;11.55;;
44664;SDS011;30382;48.802;9.388;2023-01-29T11:10:24;18.80;;;12.48;;
44664;SDS011;30382;48.802;9.388;2023-01-29T11:13:12;12.50;;;11.20;;
44664;SDS011;30382;48.802;9.388;2023-01-29T11:16:23;12.98;;;11.40;;
44664;SDS011;30382;48.802;9.388;2023-01-29T11:19:08;12.02;;;10.90;;
44664;SDS011;30382;48.802;9.388;2023-01-29T11:22:10;13.77;;;11.93;;
44664;SDS011;30382;48.802;9.388;2023-01-29T11:35:42;15.02;;;11.60;;
44664;SDS011;30382;48.802;9.388;2023-01-29T11:38:30;20.70;;;13.35;;
44664;SDS011;30382;48.802;9.388;2023-01-29T11:41:15;18.67;;;12.50;;
44664;SDS011;30382;48.802;9.388;2023-01-29T11:44:41;16.70;;;13.23;;
44664;SDS011;30382;48.802;9.388;2023-01-29T11:47:26;18.08;;;13.00;;
44664;SDS011;30382;48.802;9.388;2023-01-29T11:50:16;15.88;;;12.13;;
44664;SDS011;30382;48.802;9.388;2023-01-29T11:53:02;18.98;;;12.30;;
44664;SDS011;30382;48.802;9.388;2023-01-29T11:55:49;15.90;;;11.88;;
44664;SDS011;30382;48.802;9.388;2023-01-29T11:58:35;14.32;;;12.50;;
44664;SDS011;30382;48.802;9.388;2023-01-29T12:01:23;14.23;;;11.93;;
44664;SDS011;30382;48.802;9.388;2023-01-29T12:04:16;13.57;;;11.60;;
44664;SDS011;30382;48.802;9.388;2023-01-29T12:07:02;18.37;;;12.00;;
44664;SDS011;30382;48.802;9.388;2023-01-29T12:09:53;14.18;;;12.13;;
44664;SDS011;30382;48.802;9.388;2023-01-29T12:12:38;14.17;;;12.37;;
44664;SDS011;30382;48.802;9.388;2023-01-29T12:15:24;17.17;;;13.30;;
44664;SDS011;30382;48.802;9.388;2023-01-29T12:26:30;14.80;;;13.23;;
44664;SDS011;30382;48.802;9.388;2023-01-29T12:29:20;18.30;;;13.35;;
44664;SDS011;30382;48.802;9.388;2023-01-29T12:35:00;19.65;;;17.75;;
44664;SDS011;30382;48.802;9.388;2023-01-29T12:37:57;12.30;;;11.10;;
44664;SDS011;30382;48.802;9.388;2023-01-29T12:40:51;15.85;;;14.23;;
44664;SDS011;30382;48.802;9.388;2023-01-29T12:43:43;17.63;;;15.37;;
44664;SDS011;30382;48.802;9.388;2023-01-29T12:46:42;13.23;;;12.02;;
44664;SDS011;30382;48.802;9.388;2023-01-29T12:49:30;15.00;;;12.68;;
44664;SDS011;30382;48.802;9.388;2023-01-29T12:52:35;12.27;;;11.07;;
44664;SDS011;30382;48.802;9.388;2023-01-29T12:55:28;12.50;;;10.48;;
44664;SDS011;30382;48.802;9.388;2023-01-29T12:58:20;13.35;;;11.43;;
44664;SDS011;30382;48.802;9.388;2023-01-29T13:01:10;12.48;;;11.18;;
44664;SDS011;30382;48.802;9.388;2023-01-29T13:06:41;20.55;;;15.70;;
44664;SDS011;30382;48.802;9.388;2023-01-29T13:09:29;12.23;;;11.03;;
44664;SDS011;30382;48.802;9.388;2023-01-29T13:12:17;12.02;;;10.77;;
44664;SDS011;30382;48.802;9.388;2023-01-29T13:15:04;11.38;;;10.27;;
44664;SDS011;30382;48.802;9.388;2023-01-29T13:17:51;11.00;;;10.00;;
44664;SDS011;30382;48.802;9.388;2023-01-29T13:20:38;11.68;;;10.57;;
44664;SDS011;30382;48.802;9.388;2023-01-29T13:23:36;12.52;;;11.02;;
44664;SDS011;30382;48.802;9.388;2023-01-29T13:26:21;14.03;;;11.40;;
44664;SDS011;30382;48.802;9.388;2023-01-29T13:29:12;12.38;;;10.43;;
44664;SDS011;30382;48.802;9.388;2023-01-29T13:32:03;11.43;;;10.23;;
44664;SDS011;30382;48.802;9.388;2023-01-29T13:34:48;11.35;;;10.25;;
44664;SDS011;30382;48.802;9.388;2023-01-29T13:37:33;10.70;;;9.70;;
44664;SDS011;30382;48.802;9.388;2023-01-29T13:40:23;11.52;;;10.43;;
44664;SDS011;30382;48.802;9.388;2023-01-29T13:43:09;11.25;;;10.23;;
44664;SDS011;30382;48.802;9.388;2023-01-29T13:46:06;11.25;;;10.10;;
44664;SDS011;30382;48.802;9.388;2023-01-29T13:48:51;12.15;;;10.55;;
44664;SDS011;30382;48.802;9.388;2023-01-29T13:51:38;13.33;;;10.53;;
44664;SDS011;30382;48.802;9.388;2023-01-29T13:54:23;11.63;;;10.43;;
44664;SDS011;30382;48.802;9.388;2023-01-29T13:57:17;12.00;;;10.10;;
44664;SDS011;30382;48.802;9.388;2023-01-29T14:05:58;12.82;;;11.63;;
44664;SDS011;30382;48.802;9.388;2023-01-29T14:08:44;16.60;;;12.50;;
44664;SDS011;30382;48.802;9.388;2023-01-29T14:11:34;13.40;;;12.10;;
44664;SDS011;30382;48.802;9.388;2023-01-29T14:14:48;12.65;;;11.30;;
44664;SDS011;30382;48.802;9.388;2023-01-29T14:17:26;13.13;;;11.75;;
44664;SDS011;30382;48.802;9.388;2023-01-29T14:20:18;13.77;;;12.27;;
44664;SDS011;30382;48.802;9.388;2023-01-29T14:23:04;15.82;;;13.18;;
44664;SDS011;30382;48.802;9.388;2023-01-29T14:25:49;16.73;;;13.70;;
44664;SDS011;30382;48.802;9.388;2023-01-29T14:28:33;17.70;;;13.10;;
44664;SDS011;30382;48.802;9.388;2023-01-29T14:31:31;15.02;;;12.98;;
44664;SDS011;30382;48.802;9.388;2023-01-29T14:34:21;18.27;;;13.98;;
44664;SDS011;30382;48.802;9.388;2023-01-29T14:37:18;14.95;;;12.70;;
44664;SDS011;30382;48.802;9.388;2023-01-29T14:40:12;15.23;;;13.70;;
44664;SDS011;30382;48.802;9.388;2023-01-29T14:45:41;17.92;;;13.25;;
44664;SDS011;30382;48.802;9.388;2023-01-29T14:48:38;18.03;;;14.87;;
44664;SDS011;30382;48.802;9.388;2023-01-29T14:51:22;16.55;;;14.38;;
44664;SDS011;30382;48.802;9.388;2023-01-29T14:57:02;16.05;;;12.93;;
44664;SDS011;30382;48.802;9.388;2023-01-29T14:59:56;19.35;;;14.50;;
44664;SDS011;30382;48.802;9.388;2023-01-29T15:02:42;16.80;;;13.57;;
44664;SDS011;30382;48.802;9.388;2023-01-29T15:05:31;19.00;;;16.27;;
44664;SDS011;30382;48.802;9.388;2023-01-29T15:08:20;17.70;;;14.02;;
44664;SDS011;30382;48.802;9.388;2023-01-29T15:11:20;25.83;;;15.20;;
44664;SDS011;30382;48.802;9.388;2023-01-29T15:20:00;15.02;;;13.52;;
44664;SDS011;30382;48.802;9.388;2023-01-29T15:22:44;17.00;;;13.30;;
44664;SDS011;30382;48.802;9.388;2023-01-29T15:25:46;21.30;;;14.13;;
44664;SDS011;30382;48.802;9.388;2023-01-29T15:28:33;16.98;;;14.13;;
44664;SDS011;30382;48.802;9.388;2023-01-29T15:31:17;16.10;;;13.80;;
44664;SDS011;30382;48.802;9.388;2023-01-29T15:34:10;17.15;;;13.95;;
44664;SDS011;30382;48.802;9.388;2023-01-29T15:37:01;18.90;;;15.02;;
44664;SDS011;30382;48.802;9.388;2023-01-29T15:39:51;18.55;;;14.18;;
44664;SDS011;30382;48.802;9.388;2023-01-29T15:42:42;19.02;;;12.93;;
44664;SDS011;30382;48.802;9.388;2023-01-29T15:45:30;19.35;;;13.88;;
44664;SDS011;30382;48.802;9.388;2023-01-29T15:48:16;14.63;;;12.63;;
44664;SDS011;30382;48.802;9.388;2023-01-29T15:51:01;15.07;;;12.75;;
44664;SDS011;30382;48.802;9.388;2023-01-29T15:53:53;19.13;;;14.35;;
44664;SDS011;30382;48.802;9.388;2023-01-29T15:56:47;20.50;;;14.20;;
44664;SDS011;30382;48.802;9.388;2023-01-29T15:59:33;19.73;;;14.83;;
44664;SDS011;30382;48.802;9.388;2023-01-29T16:02:31;16.80;;;14.27;;
44664;SDS011;30382;48.802;9.388;2023-01-29T16:05:19;22.40;;;16.10;;
44664;SDS011;30382;48.802;9.388;2023-01-29T16:08:08;16.30;;;14.20;;
44664;SDS011;30382;48.802;9.388;2023-01-29T16:10:56;16.05;;;14.35;;
44664;SDS011;30382;48.802;9.388;2023-01-29T16:13:41;16.45;;;13.93;;
44664;SDS011;30382;48.802;9.388;2023-01-29T16:16:27;24.35;;;18.13;;
44664;SDS011;30382;48.802;9.388;2023-01-29T16:19:12;21.77;;;15.48;;
44664;SDS011;30382;48.802;9.388;2023-01-29T16:24:41;21.85;;;19.55;;
44664;SDS011;30382;48.802;9.388;2023-01-29T16:27:25;22.90;;;19.20;;
44664;SDS011;30382;48.802;9.388;2023-01-29T16:30:14;23.95;;;19.02;;
44664;SDS011;30382;48.802;9.388;2023-01-29T16:33:01;19.80;;;16.52;;
44664;SDS011;30382;48.802;9.388;2023-01-29T16:35:51;22.52;;;16.30;;
44664;SDS011;30382;48.802;9.388;2023-01-29T16:38:35;21.40;;;15.88;;
44664;SDS011;30382;48.802;9.388;2023-01-29T16:47:04;21.52;;;16.80;;
44664;SDS011;30382;48.802;9.388;2023-01-29T16:49:50;20.67;;;16.27;;
44664;SDS011;30382;48.802;9.388;2023-01-29T16:52:35;22.15;;;19.08;;
44664;SDS011;30382;48.802;9.388;2023-01-29T16:55:20;23.73;;;19.52;;
44664;SDS011;30382;48.802;9.388;2023-01-29T16:58:19;43.40;;;29.65;;
44664;SDS011;30382;48.802;9.388;2023-01-29T17:01:06;31.27;;;24.50;;
44664;SDS011;30382;48.802;9.388;2023-01-29T17:04:00;37.65;;;28.35;;
44664;SDS011;30382;48.802;9.388;2023-01-29T17:06:52;29.42;;;22.92;;
44664;SDS011;30382;48.802;9.388;2023-01-29T17:10:51;25.55;;;20.95;;
44664;SDS011;30382;48.802;9.388;2023-01-29T17:14:25;24.37;;;20.47;;
44664;SDS011;30382;48.802;9.388;2023-01-29T17:17:15;27.13;;;21.23;;
44664;SDS011;30382;48.802;9.388;2023-01-29T17:20:10;28.90;;;21.98;;
44664;SDS011;30382;48.802;9.388;2023-01-29T17:22:59;29.45;;;21.00;;
44664;SDS011;30382;48.802;9.388;2023-01-29T17:25:43;30.25;;;23.80;;
44664;SDS011;30382;48.802;9.388;2023-01-29T17:28:28;31.13;;;22.60;;
44664;SDS011;30382;48.802;9.388;2023-01-29T17:31:17;26.15;;;20.25;;
44664;SDS011;30382;48.802;9.388;2023-01-29T17:34:04;27.27;;;18.77;;
44664;SDS011;30382;48.802;9.388;2023-01-29T17:40:55;22.43;;;18.00;;
44664;SDS011;30382;48.802;9.388;2023-01-29T17:47:03;27.58;;;20.38;;
44664;SDS011;30382;48.802;9.388;2023-01-29T17:49:52;33.03;;;20.55;;
44664;SDS011;30382;48.802;9.388;2023-01-29T17:52:38;27.02;;;23.80;;
44664;SDS011;30382;48.802;9.388;2023-01-29T17:55:24;25.83;;;21.53;;
44664;SDS011;30382;48.802;9.388;2023-01-29T17:58:15;27.90;;;21.02;;
44664;SDS011;30382;48.802;9.388;2023-01-29T18:01:03;24.02;;;20.23;;
44664;SDS011;30382;48.802;9.388;2023-01-29T18:03:50;26.27;;;20.35;;
44664;SDS011;30382;48.802;9.388;2023-01-29T18:07:05;26.63;;;18.33;;
44664;SDS011;30382;48.802;9.388;2023-01-29T18:09:52;20.60;;;16.77;;
44664;SDS011;30382;48.802;9.388;2023-01-29T18:12:38;18.93;;;16.23;;
44664;SDS011;30382;48.802;9.388;2023-01-29T18:15:23;20.50;;;16.30;;
44664;SDS011;30382;48.802;9.388;2023-01-29T18:18:17;20.03;;;16.80;;
44664;SDS011;30382;48.802;9.388;2023-01-29T18:21:34;21.00;;;17.88;;
44664;SDS011;30382;48.802;9.388;2023-01-29T18:24:23;22.70;;;17.02;;
44664;SDS011;30382;48.802;9.388;2023-01-29T18:27:11;25.17;;;18.15;;
44664;SDS011;30382;48.802;9.388;2023-01-29T18:33:07;19.08;;;14.70;;
44664;SDS011;30382;48.802;9.388;2023-01-29T18:35:53;19.02;;;15.43;;
44664;SDS011;30382;48.802;9.388;2023-01-29T18:38:46;19.60;;;16.10;;
44664;SDS011;30382;48.802;9.388;2023-01-29T18:41:47;17.58;;;15.63;;
44664;SDS011;30382;48.802;9.388;2023-01-29T18:58:33;20.65;;;16.73;;
44664;SDS011;30382;48.802;9.388;2023-01-29T19:01:21;19.95;;;16.58;;
44664;SDS011;30382;48.802;9.388;2023-01-29T19:04:07;21.73;;;16.40;;
44664;SDS011;30382;48.802;9.388;2023-01-29T19:06:51;25.38;;;20.27;;
44664;SDS011;30382;48.802;9.388;2023-01-29T19:09:36;31.42;;;24.92;;
44664;SDS011;30382;48.802;9.388;2023-01-29T19:12:21;22.90;;;18.05;;
44664;SDS011;30382;48.802;9.388;2023-01-29T19:15:06;23.85;;;18.17;;
44664;SDS011;30382;48.802;9.388;2023-01-29T19:17:51;24.67;;;18.83;;
44664;SDS011;30382;48.802;9.388;2023-01-29T19:20:38;25.20;;;20.55;;
44664;SDS011;30382;48.802;9.388;2023-01-29T19:23:22;23.48;;;20.98;;
44664;SDS011;30382;48.802;9.388;2023-01-29T19:26:08;26.80;;;21.70;;
44664;SDS011;30382;48.802;9.388;2023-01-29T19:28:53;29.65;;;23.20;;
44664;SDS011;30382;48.802;9.388;2023-01-29T19:31:41;28.80;;;22.52;;
44664;SDS011;30382;48.802;9.388;2023-01-29T19:34:26;33.53;;;26.30;;
44664;SDS011;30382;48.802;9.388;2023-01-29T19:37:10;27.63;;;21.40;;
44664;SDS011;30382;48.802;9.388;2023-01-29T19:39:55;27.95;;;20.83;;
44664;SDS011;30382;48.802;9.388;2023-01-29T19:42:40;27.77;;;21.50;;
44664;SDS011;30382;48.802;9.388;2023-01-29T19:45:24;30.53;;;22.13;;
44664;SDS011;30382;48.802;9.388;2023-01-29T21:13:34;22.95;;;18.20;;
44664;SDS011;30382;48.802;9.388;2023-01-29T21:16:53;23.75;;;19.35;;
44664;SDS011;30382;48.802;9.388;2023-01-29T21:51:25;23.77;;;18.25;;
44664;SDS011;30382;48.802;9.388;2023-01-29T21:54:31;25.60;;;18.67;;
44664;SDS011;30382;48.802;9.388;2023-01-29T21:57:42;39.70;;;28.90;;
44664;SDS011;30382;48.802;9.388;2023-01-29T22:01:19;31.98;;;24.50;;
44664;SDS011;30382;48.802;9.388;2023-01-29T22:04:09;26.20;;;20.08;;
44664;SDS011;30382;48.802;9.388;2023-01-29T22:07:02;22.48;;;18.10;;
44664;SDS011;30382;48.802;9.388;2023-01-29T22:09:47;19.48;;;17.42;;
44664;SDS011;30382;48.802;9.388;2023-01-29T22:19:58;22.23;;;17.38;;
44664;SDS011;30382;48.802;9.388;2023-01-29T22:23:33;21.43;;;17.33;;
44664;SDS011;30382;48.802;9.388;2023-01-29T22:34:21;21.90;;;17.00;;
44664;SDS011;30382;48.802;9.388;2023-01-29T22:37:06;18.55;;;16.55;;
44664;SDS011;30382;48.802;9.388;2023-01-29T22:40:22;22.83;;;18.40;;
44664;SDS011;30382;48.802;9.388;2023-01-29T22:57:49;21.33;;;16.03;;
44664;SDS011;30382;48.802;9.388;2023-01-29T23:00:42;19.77;;;16.73;;
44664;SDS011;30382;48.802;9.388;2023-01-29T23:56:48;21.98;;;15.73;;
